Check out our new PWSWeather beta!
PWSweather.com
Personal Weather Stations
Station Observations
SD92115WX
El Cerrito Stoneybluff, San Diego, CA 92115

El Cerrito StoneybluffSan Diego, CA 92115

Lat: 32.754096, Lon: -117.066705

Elevation: 420

Station Type: Davis Vantage Vue

http://stoneybluff.com

High Low Average
Temperature 65.3°F18.5°C 55.6°F13.1°C 59.6°F15.3°C
Dew Point 58.1°F14.5°C 48.2°F9.0°C 52.8°F11.6°C
Winds 12.8 mph 20.6 kmh Calm Calm 4.0 mph WSW6.4 kmh WSW
Wind Gusts 21.3 mph34.3 kmh -- 8.0 mph12.9 kmh
Humidity 95% 58% 79%
Pressure 29.96 in1014.6 mb 29.83 in1010.2 mb -
Precipitation 0.13 in3.3 mm - -
Hour Temp Dew Point Humidity Winds Wind Gusts Pressure Precip Precip Rate Daily Precip Total
12:04 AM 59.4°F15.2°C 53.6°F12.0°C 81% Calm Calm -- 29.89 in1012.2 mb 0.00 in0.0 mm 0.00 in0.0 mm 0.00 in0.0 mm
12:09 AM 59.4°F15.2°C 53.6°F12.0°C 81% Calm Calm 1.1 mph1.8 kmh 29.89 in1012.2 mb 0.00 in0.0 mm 0.00 in0.0 mm 0.00 in0.0 mm
12:14 AM 59.2°F15.1°C 53.4°F11.9°C 81% Calm Calm -- 29.89 in1012.2 mb 0.00 in0.0 mm 0.00 in0.0 mm 0.00 in0.0 mm
12:19 AM 59.0°F15.0°C 53.6°F12.0°C 82% Calm Calm -- 29.90 in1012.5 mb 0.00 in0.0 mm 0.00 in0.0 mm 0.00 in0.0 mm
12:24 AM 58.8°F14.9°C 53.4°F11.9°C 82% Calm Calm -- 29.89 in1012.2 mb 0.00 in0.0 mm 0.00 in0.0 mm 0.00 in0.0 mm
12:29 AM 58.8°F14.9°C 53.4°F11.9°C 82% Calm Calm -- 29.89 in1012.2 mb 0.00 in0.0 mm 0.00 in0.0 mm 0.00 in0.0 mm
12:34 AM 58.6°F14.8°C 53.2°F11.8°C 82% Calm Calm -- 29.89 in1012.2 mb 0.00 in0.0 mm 0.00 in0.0 mm 0.00 in0.0 mm
12:39 AM 58.6°F14.8°C 53.4°F11.9°C 83% Calm Calm -- 29.89 in1012.2 mb 0.00 in0.0 mm 0.00 in0.0 mm 0.00 in0.0 mm
12:44 AM 58.5°F14.7°C 53.2°F11.8°C 83% Calm Calm -- 29.89 in1012.2 mb 0.00 in0.0 mm 0.00 in0.0 mm 0.00 in0.0 mm
12:49 AM 58.1°F14.5°C 52.9°F11.6°C 83% Calm Calm -- 29.89 in1012.2 mb 0.00 in0.0 mm 0.00 in0.0 mm 0.00 in0.0 mm
12:54 AM 57.7°F14.3°C 52.7°F11.5°C 83% Calm Calm -- 29.89 in1012.2 mb 0.00 in0.0 mm 0.00 in0.0 mm 0.00 in0.0 mm
12:59 AM 57.6°F14.2°C 52.7°F11.5°C 84% Calm Calm -- 29.89 in1012.2 mb 0.00 in0.0 mm 0.00 in0.0 mm 0.00 in0.0 mm
01:04 AM 57.4°F14.1°C 52.5°F11.4°C 84% Calm Calm -- 29.89 in1012.2 mb 0.00 in0.0 mm 0.00 in0.0 mm 0.00 in0.0 mm
01:09 AM 57.4°F14.1°C 52.9°F11.6°C 85% Calm Calm -- 29.89 in1012.2 mb 0.00 in0.0 mm 0.00 in0.0 mm 0.00 in0.0 mm
01:14 AM 57.4°F14.1°C 52.9°F11.6°C 85% Calm Calm -- 29.88 in1011.9 mb 0.00 in0.0 mm 0.00 in0.0 mm 0.00 in0.0 mm
01:19 AM 57.2°F14.0°C 53.1°F11.7°C 86% Calm Calm -- 29.88 in1011.9 mb 0.00 in0.0 mm 0.00 in0.0 mm 0.00 in0.0 mm
01:24 AM 57.0°F13.9°C 52.9°F11.6°C 86% Calm Calm -- 29.88 in1011.9 mb 0.00 in0.0 mm 0.00 in0.0 mm 0.00 in0.0 mm
01:29 AM 57.0°F13.9°C 52.9°F11.6°C 86% Calm Calm -- 29.88 in1011.9 mb 0.00 in0.0 mm 0.00 in0.0 mm 0.00 in0.0 mm
01:34 AM 57.0°F13.9°C 52.9°F11.6°C 86% Calm Calm -- 29.88 in1011.9 mb 0.00 in0.0 mm 0.00 in0.0 mm 0.00 in0.0 mm
01:39 AM 56.8°F13.8°C 52.7°F11.5°C 86% Calm Calm -- 29.87 in1011.5 mb 0.00 in0.0 mm 0.00 in0.0 mm 0.00 in0.0 mm
01:44 AM 56.7°F13.7°C 52.5°F11.4°C 86% Calm Calm -- 29.87 in1011.5 mb 0.00 in0.0 mm 0.00 in0.0 mm 0.00 in0.0 mm
01:49 AM 56.5°F13.6°C 52.3°F11.3°C 86% Calm Calm -- 29.87 in1011.5 mb 0.00 in0.0 mm 0.00 in0.0 mm 0.00 in0.0 mm
01:54 AM 56.1°F13.4°C 52.3°F11.3°C 87% Calm Calm -- 29.86 in1011.2 mb 0.00 in0.0 mm 0.00 in0.0 mm 0.00 in0.0 mm
01:59 AM 56.1°F13.4°C 52.3°F11.3°C 87% Calm Calm -- 29.86 in1011.2 mb 0.00 in0.0 mm 0.00 in0.0 mm 0.00 in0.0 mm
02:04 AM 56.1°F13.4°C 52.3°F11.3°C 87% Calm Calm -- 29.86 in1011.2 mb 0.00 in0.0 mm 0.00 in0.0 mm 0.00 in0.0 mm
02:09 AM 55.9°F13.3°C 52.5°F11.4°C 88% Calm Calm -- 29.86 in1011.2 mb 0.00 in0.0 mm 0.00 in0.0 mm 0.00 in0.0 mm
02:14 AM 55.9°F13.3°C 52.5°F11.4°C 88% Calm Calm -- 29.86 in1011.2 mb 0.00 in0.0 mm 0.00 in0.0 mm 0.00 in0.0 mm
02:19 AM 55.8°F13.2°C 52.3°F11.3°C 88% Calm Calm -- 29.86 in1011.2 mb 0.00 in0.0 mm 0.00 in0.0 mm 0.00 in0.0 mm
02:24 AM 55.8°F13.2°C 52.3°F11.3°C 88% Calm Calm -- 29.85 in1010.8 mb 0.00 in0.0 mm 0.00 in0.0 mm 0.00 in0.0 mm
02:29 AM 55.8°F13.2°C 52.3°F11.3°C 88% Calm Calm -- 29.85 in1010.8 mb 0.00 in0.0 mm 0.00 in0.0 mm 0.00 in0.0 mm
02:34 AM 55.8°F13.2°C 52.5°F11.4°C 89% Calm Calm -- 29.85 in1010.8 mb 0.00 in0.0 mm 0.00 in0.0 mm 0.00 in0.0 mm
02:39 AM 55.8°F13.2°C 52.5°F11.4°C 89% Calm Calm -- 29.86 in1011.2 mb 0.00 in0.0 mm 0.00 in0.0 mm 0.00 in0.0 mm
02:44 AM 55.6°F13.1°C 52.3°F11.3°C 89% Calm Calm -- 29.85 in1010.8 mb 0.00 in0.0 mm 0.00 in0.0 mm 0.00 in0.0 mm
02:49 AM 55.8°F13.2°C 52.5°F11.4°C 89% Calm Calm -- 29.85 in1010.8 mb 0.00 in0.0 mm 0.00 in0.0 mm 0.00 in0.0 mm
02:54 AM 55.8°F13.2°C 52.5°F11.4°C 89% Calm Calm -- 29.85 in1010.8 mb 0.00 in0.0 mm 0.00 in0.0 mm 0.00 in0.0 mm
02:59 AM 55.8°F13.2°C 52.5°F11.4°C 89% Calm Calm -- 29.85 in1010.8 mb 0.00 in0.0 mm 0.00 in0.0 mm 0.00 in0.0 mm
03:04 AM 55.6°F13.1°C 52.3°F11.3°C 89% Calm Calm -- 29.85 in1010.8 mb 0.00 in0.0 mm 0.00 in0.0 mm 0.00 in0.0 mm
03:09 AM 55.6°F13.1°C 52.3°F11.3°C 89% Calm Calm -- 29.85 in1010.8 mb 0.00 in0.0 mm 0.00 in0.0 mm 0.00 in0.0 mm
03:14 AM 55.6°F13.1°C 52.3°F11.3°C 89% Calm Calm -- 29.85 in1010.8 mb 0.00 in0.0 mm 0.00 in0.0 mm 0.00 in0.0 mm
03:19 AM 55.6°F13.1°C 52.3°F11.3°C 89% Calm Calm -- 29.85 in1010.8 mb 0.00 in0.0 mm 0.00 in0.0 mm 0.00 in0.0 mm
03:24 AM 55.6°F13.1°C 52.7°F11.5°C 90% Calm Calm -- 29.85 in1010.8 mb 0.00 in0.0 mm 0.00 in0.0 mm 0.00 in0.0 mm
03:29 AM 55.8°F13.2°C 52.9°F11.6°C 90% Calm Calm -- 29.85 in1010.8 mb 0.00 in0.0 mm 0.00 in0.0 mm 0.00 in0.0 mm
03:34 AM 55.6°F13.1°C 52.3°F11.3°C 89% Calm Calm -- 29.85 in1010.8 mb 0.00 in0.0 mm 0.00 in0.0 mm 0.00 in0.0 mm
03:40 AM 55.6°F13.1°C 52.3°F11.3°C 89% Calm Calm -- 29.85 in1010.8 mb 0.00 in0.0 mm 0.00 in0.0 mm 0.00 in0.0 mm
03:45 AM 55.6°F13.1°C 52.7°F11.5°C 90% Calm Calm -- 29.85 in1010.8 mb 0.00 in0.0 mm 0.00 in0.0 mm 0.00 in0.0 mm
03:50 AM 55.6°F13.1°C 52.7°F11.5°C 90% Calm Calm -- 29.85 in1010.8 mb 0.00 in0.0 mm 0.00 in0.0 mm 0.00 in0.0 mm
03:55 AM 55.6°F13.1°C 52.7°F11.5°C 90% Calm Calm -- 29.85 in1010.8 mb 0.00 in0.0 mm 0.00 in0.0 mm 0.00 in0.0 mm
04:00 AM 55.8°F13.2°C 52.9°F11.6°C 90% Calm Calm -- 29.85 in1010.8 mb 0.00 in0.0 mm 0.00 in0.0 mm 0.00 in0.0 mm
04:05 AM 55.9°F13.3°C 53.1°F11.7°C 90% Calm Calm -- 29.85 in1010.8 mb 0.00 in0.0 mm 0.00 in0.0 mm 0.00 in0.0 mm
04:10 AM 56.1°F13.4°C 53.2°F11.8°C 90% Calm Calm -- 29.85 in1010.8 mb 0.00 in0.0 mm 0.00 in0.0 mm 0.00 in0.0 mm
04:15 AM 56.1°F13.4°C 53.2°F11.8°C 90% 0.4 mph SE0.6 kmh SE 2.0 mph3.2 kmh 29.85 in1010.8 mb 0.00 in0.0 mm 0.00 in0.0 mm 0.00 in0.0 mm
04:20 AM 56.5°F13.6°C 53.6°F12.0°C 90% 0.7 mph SE1.1 kmh SE 2.0 mph3.2 kmh 29.85 in1010.8 mb 0.00 in0.0 mm 0.00 in0.0 mm 0.00 in0.0 mm
04:25 AM 56.7°F13.7°C 53.4°F11.9°C 89% 0.9 mph SE1.4 kmh SE 2.0 mph3.2 kmh 29.84 in1010.5 mb 0.00 in0.0 mm 0.00 in0.0 mm 0.00 in0.0 mm
04:30 AM 56.7°F13.7°C 53.4°F11.9°C 89% 1.3 mph SE2.1 kmh SE 4.3 mph6.9 kmh 29.84 in1010.5 mb 0.00 in0.0 mm 0.00 in0.0 mm 0.00 in0.0 mm
04:35 AM 56.8°F13.8°C 53.6°F12.0°C 89% 0.4 mph S0.6 kmh S 4.3 mph6.9 kmh 29.83 in1010.2 mb 0.00 in0.0 mm 0.00 in0.0 mm 0.00 in0.0 mm
04:40 AM 56.8°F13.8°C 53.6°F12.0°C 89% 1.1 mph SSE1.8 kmh SSE 3.1 mph5.0 kmh 29.84 in1010.5 mb 0.00 in0.0 mm 0.00 in0.0 mm 0.00 in0.0 mm
04:45 AM 56.8°F13.8°C 53.6°F12.0°C 89% 1.6 mph SE2.6 kmh SE 3.1 mph5.0 kmh 29.84 in1010.5 mb 0.00 in0.0 mm 0.00 in0.0 mm 0.00 in0.0 mm
04:50 AM 57.0°F13.9°C 53.8°F12.1°C 89% 2.2 mph SW3.5 kmh SW 4.3 mph6.9 kmh 29.84 in1010.5 mb 0.00 in0.0 mm 0.00 in0.0 mm 0.00 in0.0 mm
04:55 AM 57.0°F13.9°C 53.4°F11.9°C 88% 1.6 mph SSE2.6 kmh SSE 3.1 mph5.0 kmh 29.84 in1010.5 mb 0.00 in0.0 mm 0.00 in0.0 mm 0.00 in0.0 mm
05:00 AM 57.4°F14.1°C 53.8°F12.1°C 88% 1.6 mph SE2.6 kmh SE 4.3 mph6.9 kmh 29.84 in1010.5 mb 0.00 in0.0 mm 0.00 in0.0 mm 0.00 in0.0 mm
05:05 AM 57.6°F14.2°C 54.0°F12.2°C 88% 1.3 mph SE2.1 kmh SE 3.1 mph5.0 kmh 29.85 in1010.8 mb 0.00 in0.0 mm 0.00 in0.0 mm 0.00 in0.0 mm
05:10 AM 57.6°F14.2°C 53.8°F12.1°C 87% 0.9 mph SE1.4 kmh SE 3.1 mph5.0 kmh 29.85 in1010.8 mb 0.00 in0.0 mm 0.00 in0.0 mm 0.00 in0.0 mm
05:15 AM 57.7°F14.3°C 54.0°F12.2°C 87% 0.9 mph SSE1.4 kmh SSE 2.0 mph3.2 kmh 29.85 in1010.8 mb 0.00 in0.0 mm 0.00 in0.0 mm 0.00 in0.0 mm
05:20 AM 57.7°F14.3°C 54.0°F12.2°C 87% 1.8 mph SSE2.9 kmh SSE 5.4 mph8.7 kmh 29.85 in1010.8 mb 0.00 in0.0 mm 0.00 in0.0 mm 0.00 in0.0 mm
05:25 AM 57.7°F14.3°C 54.0°F12.2°C 87% 1.3 mph SSE2.1 kmh SSE 3.1 mph5.0 kmh 29.85 in1010.8 mb 0.00 in0.0 mm 0.00 in0.0 mm 0.00 in0.0 mm
05:30 AM 57.9°F14.4°C 54.1°F12.3°C 87% 1.8 mph SW2.9 kmh SW 4.3 mph6.9 kmh 29.85 in1010.8 mb 0.00 in0.0 mm 0.00 in0.0 mm 0.00 in0.0 mm
05:35 AM 57.9°F14.4°C 53.8°F12.1°C 86% 2.2 mph S3.5 kmh S 3.1 mph5.0 kmh 29.85 in1010.8 mb 0.00 in0.0 mm 0.00 in0.0 mm 0.00 in0.0 mm
05:40 AM 58.1°F14.5°C 54.0°F12.2°C 86% 1.6 mph S2.6 kmh S 3.1 mph5.0 kmh 29.85 in1010.8 mb 0.00 in0.0 mm 0.00 in0.0 mm 0.00 in0.0 mm
05:45 AM 58.3°F14.6°C 54.1°F12.3°C 86% 1.6 mph SSE2.6 kmh SSE 4.3 mph6.9 kmh 29.85 in1010.8 mb 0.00 in0.0 mm 0.00 in0.0 mm 0.00 in0.0 mm
05:50 AM 58.3°F14.6°C 54.1°F12.3°C 86% 1.6 mph SSE2.6 kmh SSE 5.4 mph8.7 kmh 29.85 in1010.8 mb 0.00 in0.0 mm 0.00 in0.0 mm 0.00 in0.0 mm
05:55 AM 58.5°F14.7°C 54.3°F12.4°C 86% 0.4 mph SSE0.6 kmh SSE 4.3 mph6.9 kmh 29.85 in1010.8 mb 0.00 in0.0 mm 0.00 in0.0 mm 0.00 in0.0 mm
06:00 AM 58.5°F14.7°C 54.3°F12.4°C 86% 0.9 mph SW1.4 kmh SW 3.1 mph5.0 kmh 29.85 in1010.8 mb 0.00 in0.0 mm 0.00 in0.0 mm 0.00 in0.0 mm
06:05 AM 58.6°F14.8°C 54.1°F12.3°C 85% 0.4 mph ENE0.6 kmh ENE 4.3 mph6.9 kmh 29.85 in1010.8 mb 0.00 in0.0 mm 0.00 in0.0 mm 0.00 in0.0 mm
06:10 AM 58.8°F14.9°C 54.3°F12.4°C 85% 2.5 mph SSW4.0 kmh SSW 4.3 mph6.9 kmh 29.85 in1010.8 mb 0.00 in0.0 mm 0.00 in0.0 mm 0.00 in0.0 mm
06:15 AM 59.0°F15.0°C 54.1°F12.3°C 84% 2.5 mph SSE4.0 kmh SSE 6.3 mph10.1 kmh 29.85 in1010.8 mb 0.00 in0.0 mm 0.00 in0.0 mm 0.00 in0.0 mm
06:20 AM 59.4°F15.2°C 54.5°F12.5°C 84% 0.4 mph SSW0.6 kmh SSW 5.4 mph8.7 kmh 29.85 in1010.8 mb 0.00 in0.0 mm 0.00 in0.0 mm 0.00 in0.0 mm
06:25 AM 59.7°F15.4°C 54.5°F12.5°C 83% 3.8 mph S6.1 kmh S 7.4 mph11.9 kmh 29.85 in1010.8 mb 0.00 in0.0 mm 0.00 in0.0 mm 0.00 in0.0 mm
06:30 AM 59.5°F15.3°C 54.3°F12.4°C 83% 3.4 mph SE5.5 kmh SE 8.5 mph13.7 kmh 29.85 in1010.8 mb 0.00 in0.0 mm 0.00 in0.0 mm 0.00 in0.0 mm
06:35 AM 59.7°F15.4°C 54.5°F12.5°C 83% 2.5 mph S4.0 kmh S 6.3 mph10.1 kmh 29.85 in1010.8 mb 0.00 in0.0 mm 0.00 in0.0 mm 0.00 in0.0 mm
06:40 AM 60.1°F15.6°C 54.9°F12.7°C 83% 3.6 mph SE5.8 kmh SE 8.5 mph13.7 kmh 29.85 in1010.8 mb 0.00 in0.0 mm 0.00 in0.0 mm 0.00 in0.0 mm
06:45 AM 60.1°F15.6°C 54.5°F12.5°C 82% 3.4 mph SSW5.5 kmh SSW 8.5 mph13.7 kmh 29.85 in1010.8 mb 0.00 in0.0 mm 0.00 in0.0 mm 0.00 in0.0 mm
06:50 AM 60.1°F15.6°C 54.5°F12.5°C 82% 2.9 mph SE4.7 kmh SE 7.4 mph11.9 kmh 29.85 in1010.8 mb 0.00 in0.0 mm 0.00 in0.0 mm 0.00 in0.0 mm
06:55 AM 60.1°F15.6°C 54.3°F12.4°C 81% 4.0 mph SSE6.4 kmh SSE 10.5 mph16.9 kmh 29.85 in1010.8 mb 0.00 in0.0 mm 0.00 in0.0 mm 0.00 in0.0 mm
07:00 AM 60.3°F15.7°C 54.3°F12.4°C 81% 3.8 mph SE6.1 kmh SE 8.5 mph13.7 kmh 29.85 in1010.8 mb 0.00 in0.0 mm 0.00 in0.0 mm 0.00 in0.0 mm
07:05 AM 60.4°F15.8°C 54.5°F12.5°C 81% 2.9 mph SW4.7 kmh SW 8.5 mph13.7 kmh 29.85 in1010.8 mb 0.00 in0.0 mm 0.00 in0.0 mm 0.00 in0.0 mm
07:10 AM 60.6°F15.9°C 54.5°F12.5°C 80% 3.6 mph SW5.8 kmh SW 7.4 mph11.9 kmh 29.85 in1010.8 mb 0.00 in0.0 mm 0.00 in0.0 mm 0.00 in0.0 mm
07:15 AM 60.8°F16.0°C 54.7°F12.6°C 80% 4.0 mph S6.4 kmh S 7.4 mph11.9 kmh 29.85 in1010.8 mb 0.00 in0.0 mm 0.00 in0.0 mm 0.00 in0.0 mm
07:20 AM 61.0°F16.1°C 54.5°F12.5°C 79% 3.6 mph SE5.8 kmh SE 7.4 mph11.9 kmh 29.85 in1010.8 mb 0.00 in0.0 mm 0.00 in0.0 mm 0.00 in0.0 mm
07:25 AM 61.2°F16.2°C 54.7°F12.6°C 79% 3.6 mph S5.8 kmh S 8.5 mph13.7 kmh 29.85 in1010.8 mb 0.00 in0.0 mm 0.00 in0.0 mm 0.00 in0.0 mm
07:30 AM 61.3°F16.3°C 54.9°F12.7°C 79% 3.1 mph SW5.0 kmh SW 6.3 mph10.1 kmh 29.85 in1010.8 mb 0.00 in0.0 mm 0.00 in0.0 mm 0.00 in0.0 mm
07:35 AM 61.3°F16.3°C 54.1°F12.3°C 77% 5.6 mph SSE9.0 kmh SSE 12.8 mph20.6 kmh 29.85 in1010.8 mb 0.00 in0.0 mm 0.00 in0.0 mm 0.00 in0.0 mm
07:40 AM 61.5°F16.4°C 54.7°F12.6°C 78% 4.7 mph SSW7.6 kmh SSW 10.5 mph16.9 kmh 29.85 in1010.8 mb 0.00 in0.0 mm 0.00 in0.0 mm 0.00 in0.0 mm
07:45 AM 61.5°F16.4°C 54.3°F12.4°C 77% 4.3 mph SW6.9 kmh SW 10.5 mph16.9 kmh 29.85 in1010.8 mb 0.00 in0.0 mm 0.00 in0.0 mm 0.00 in0.0 mm
07:50 AM 61.5°F16.4°C 54.3°F12.4°C 77% 6.0 mph SSE9.7 kmh SSE 11.6 mph18.7 kmh 29.86 in1011.2 mb 0.00 in0.0 mm 0.00 in0.0 mm 0.00 in0.0 mm
07:55 AM 61.5°F16.4°C 54.3°F12.4°C 77% 5.8 mph S9.3 kmh S 10.5 mph16.9 kmh 29.85 in1010.8 mb 0.00 in0.0 mm 0.00 in0.0 mm 0.00 in0.0 mm
08:00 AM 61.9°F16.6°C 54.3°F12.4°C 76% 6.9 mph SSE11.1 kmh SSE 11.6 mph18.7 kmh 29.85 in1010.8 mb 0.00 in0.0 mm 0.00 in0.0 mm 0.00 in0.0 mm
08:05 AM 62.1°F16.7°C 54.0°F12.2°C 75% 4.7 mph SW7.6 kmh SW 8.5 mph13.7 kmh 29.85 in1010.8 mb 0.00 in0.0 mm 0.00 in0.0 mm 0.00 in0.0 mm
08:10 AM 62.4°F16.9°C 54.3°F12.4°C 75% 2.9 mph SW4.7 kmh SW 5.4 mph8.7 kmh 29.85 in1010.8 mb 0.00 in0.0 mm 0.00 in0.0 mm 0.00 in0.0 mm
08:15 AM 62.4°F16.9°C 54.0°F12.2°C 74% 5.4 mph S8.7 kmh S 9.6 mph15.4 kmh 29.85 in1010.8 mb 0.00 in0.0 mm 0.00 in0.0 mm 0.00 in0.0 mm
08:20 AM 62.2°F16.8°C 54.1°F12.3°C 75% 4.9 mph SW7.9 kmh SW 12.8 mph20.6 kmh 29.86 in1011.2 mb 0.00 in0.0 mm 0.00 in0.0 mm 0.00 in0.0 mm
08:25 AM 61.9°F16.6°C 54.7°F12.6°C 77% 6.7 mph SW10.8 kmh SW 12.8 mph20.6 kmh 29.85 in1010.8 mb 0.00 in0.0 mm 0.00 in0.0 mm 0.00 in0.0 mm
08:30 AM 61.0°F16.1°C 55.0°F12.8°C 81% 4.5 mph SE7.2 kmh SE 11.6 mph18.7 kmh 29.86 in1011.2 mb 0.00 in0.0 mm 0.00 in0.0 mm 0.00 in0.0 mm
08:35 AM 60.4°F15.8°C 55.2°F12.9°C 83% 7.2 mph SW11.6 kmh SW 13.9 mph22.4 kmh 29.86 in1011.2 mb 0.00 in0.0 mm 0.00 in0.0 mm 0.00 in0.0 mm
08:40 AM 59.7°F15.4°C 55.2°F12.9°C 85% 6.5 mph SSW10.5 kmh SSW 12.8 mph20.6 kmh 29.86 in1011.2 mb 0.00 in0.0 mm 0.00 in0.0 mm 0.00 in0.0 mm
08:45 AM 59.4°F15.2°C 55.2°F12.9°C 86% 6.0 mph SW9.7 kmh SW 11.6 mph18.7 kmh 29.86 in1011.2 mb 0.00 in0.0 mm 0.00 in0.0 mm 0.00 in0.0 mm
08:50 AM 59.2°F15.1°C 55.6°F13.1°C 88% 4.7 mph SW7.6 kmh SW 11.6 mph18.7 kmh 29.87 in1011.5 mb 0.01 in0.3 mm 0.12 in3.0 mm 0.01 in0.3 mm
08:55 AM 59.2°F15.1°C 55.9°F13.3°C 89% 5.1 mph SSW8.2 kmh SSW 9.6 mph15.4 kmh 29.87 in1011.5 mb 0.01 in0.3 mm 0.00 in0.0 mm 0.01 in0.3 mm
09:00 AM 59.0°F15.0°C 56.1°F13.4°C 90% 3.6 mph SW5.8 kmh SW 9.6 mph15.4 kmh 29.87 in1011.5 mb 0.01 in0.3 mm 0.00 in0.0 mm 0.01 in0.3 mm
09:05 AM 58.8°F14.9°C 55.9°F13.3°C 90% 5.1 mph SW8.2 kmh SW 9.6 mph15.4 kmh 29.87 in1011.5 mb 0.01 in0.3 mm 0.00 in0.0 mm 0.01 in0.3 mm
09:10 AM 58.6°F14.8°C 55.9°F13.3°C 91% 3.1 mph SW5.0 kmh SW 7.4 mph11.9 kmh 29.87 in1011.5 mb 0.01 in0.3 mm 0.00 in0.0 mm 0.02 in0.5 mm
09:15 AM 58.6°F14.8°C 55.9°F13.3°C 91% 3.4 mph SE5.5 kmh SE 6.3 mph10.1 kmh 29.88 in1011.9 mb 0.02 in0.5 mm 0.12 in3.0 mm 0.02 in0.5 mm
09:20 AM 58.8°F14.9°C 56.5°F13.6°C 92% 2.2 mph S3.5 kmh S 6.3 mph10.1 kmh 29.87 in1011.5 mb 0.02 in0.5 mm 0.00 in0.0 mm 0.02 in0.5 mm
09:25 AM 58.6°F14.8°C 56.3°F13.5°C 92% 5.1 mph SSE8.2 kmh SSE 8.5 mph13.7 kmh 29.88 in1011.9 mb 0.02 in0.5 mm 0.00 in0.0 mm 0.02 in0.5 mm
09:30 AM 58.8°F14.9°C 56.5°F13.6°C 92% 2.9 mph SE4.7 kmh SE 5.4 mph8.7 kmh 29.88 in1011.9 mb 0.02 in0.5 mm 0.00 in0.0 mm 0.02 in0.5 mm
09:35 AM 58.8°F14.9°C 56.8°F13.8°C 93% 2.0 mph SSW3.2 kmh SSW 5.4 mph8.7 kmh 29.88 in1011.9 mb 0.02 in0.5 mm 0.00 in0.0 mm 0.02 in0.5 mm
09:40 AM 59.2°F15.1°C 57.2°F14.0°C 93% 1.1 mph SE1.8 kmh SE 3.1 mph5.0 kmh 29.88 in1011.9 mb 0.02 in0.5 mm 0.00 in0.0 mm 0.02 in0.5 mm
09:45 AM 59.2°F15.1°C 57.2°F14.0°C 93% 1.3 mph SSE2.1 kmh SSE 4.3 mph6.9 kmh 29.88 in1011.9 mb 0.02 in0.5 mm 0.00 in0.0 mm 0.02 in0.5 mm
09:50 AM 59.4°F15.2°C 57.4°F14.1°C 93% 1.1 mph SE1.8 kmh SE 3.1 mph5.0 kmh 29.88 in1011.9 mb 0.01 in0.3 mm 0.00 in0.0 mm 0.02 in0.5 mm
09:55 AM 59.5°F15.3°C 57.6°F14.2°C 93% 1.1 mph SSE1.8 kmh SSE 5.4 mph8.7 kmh 29.88 in1011.9 mb 0.01 in0.3 mm 0.00 in0.0 mm 0.02 in0.5 mm
10:00 AM 59.7°F15.4°C 57.7°F14.3°C 93% 0.9 mph S1.4 kmh S 3.1 mph5.0 kmh 29.88 in1011.9 mb 0.01 in0.3 mm 0.00 in0.0 mm 0.02 in0.5 mm
10:05 AM 59.7°F15.4°C 57.7°F14.3°C 93% 6.0 mph SW9.7 kmh SW 11.6 mph18.7 kmh 29.88 in1011.9 mb 0.01 in0.3 mm 0.00 in0.0 mm 0.02 in0.5 mm
10:10 AM 59.7°F15.4°C 57.4°F14.1°C 92% 7.2 mph SW11.6 kmh SW 13.9 mph22.4 kmh 29.88 in1011.9 mb 0.00 in0.0 mm 0.00 in0.0 mm 0.02 in0.5 mm
10:15 AM 60.1°F15.6°C 57.4°F14.1°C 91% 9.6 mph SW15.4 kmh SW 14.8 mph23.8 kmh 29.88 in1011.9 mb 0.00 in0.0 mm 0.00 in0.0 mm 0.02 in0.5 mm
10:20 AM 60.1°F15.6°C 57.4°F14.1°C 91% 12.1 mph SW19.5 kmh SW 19.0 mph30.6 kmh 29.88 in1011.9 mb 0.00 in0.0 mm 0.00 in0.0 mm 0.02 in0.5 mm
10:25 AM 60.1°F15.6°C 57.4°F14.1°C 91% 12.1 mph SW19.5 kmh SW 18.1 mph29.1 kmh 29.88 in1011.9 mb 0.00 in0.0 mm 0.00 in0.0 mm 0.02 in0.5 mm
10:30 AM 59.9°F15.5°C 57.2°F14.0°C 91% 12.3 mph SW19.8 kmh SW 17.0 mph27.4 kmh 29.89 in1012.2 mb 0.00 in0.0 mm 0.00 in0.0 mm 0.02 in0.5 mm
10:35 AM 59.7°F15.4°C 57.4°F14.1°C 92% 12.1 mph S19.5 kmh S 21.3 mph34.3 kmh 29.89 in1012.2 mb 0.00 in0.0 mm 0.00 in0.0 mm 0.02 in0.5 mm
10:40 AM 59.5°F15.3°C 57.2°F14.0°C 92% 12.3 mph SW19.8 kmh SW 19.0 mph30.6 kmh 29.89 in1012.2 mb 0.01 in0.3 mm 0.12 in3.0 mm 0.03 in0.8 mm
10:45 AM 59.4°F15.2°C 57.4°F14.1°C 93% 12.8 mph S20.6 kmh S 20.1 mph32.3 kmh 29.89 in1012.2 mb 0.02 in0.5 mm 0.12 in3.0 mm 0.04 in1.0 mm
10:50 AM 59.2°F15.1°C 57.2°F14.0°C 93% 12.1 mph WSW19.5 kmh WSW 19.0 mph30.6 kmh 29.90 in1012.5 mb 0.03 in0.8 mm 0.12 in3.0 mm 0.05 in1.3 mm
10:55 AM 59.2°F15.1°C 57.4°F14.1°C 94% 10.1 mph WSW16.3 kmh WSW 20.1 mph32.3 kmh 29.90 in1012.5 mb 0.05 in1.3 mm 0.24 in6.1 mm 0.07 in1.8 mm
11:00 AM 58.8°F14.9°C 57.0°F13.9°C 94% 7.6 mph WSW12.2 kmh WSW 13.9 mph22.4 kmh 29.91 in1012.9 mb 0.07 in1.8 mm 0.02 in0.5 mm 0.10 in2.5 mm
11:05 AM 58.8°F14.9°C 57.0°F13.9°C 94% 1.6 mph SW2.6 kmh SW 9.6 mph15.4 kmh 29.90 in1012.5 mb 0.10 in2.5 mm 0.36 in9.1 mm 0.12 in3.0 mm
11:10 AM 58.8°F14.9°C 57.0°F13.9°C 94% 4.7 mph W7.6 kmh W 9.6 mph15.4 kmh 29.91 in1012.9 mb 0.10 in2.5 mm 0.00 in0.0 mm 0.12 in3.0 mm
11:15 AM 59.2°F15.1°C 57.7°F14.3°C 95% 3.4 mph SW5.5 kmh SW 7.4 mph11.9 kmh 29.91 in1012.9 mb 0.11 in2.8 mm 0.12 in3.0 mm 0.13 in3.3 mm
11:20 AM 59.4°F15.2°C 57.6°F14.2°C 94% 4.0 mph SSW6.4 kmh SSW 9.6 mph15.4 kmh 29.91 in1012.9 mb 0.11 in2.8 mm 0.00 in0.0 mm 0.13 in3.3 mm
11:25 AM 59.5°F15.3°C 58.1°F14.5°C 95% 3.8 mph SW6.1 kmh SW 6.3 mph10.1 kmh 29.91 in1012.9 mb 0.11 in2.8 mm 0.00 in0.0 mm 0.13 in3.3 mm
11:30 AM 59.2°F15.1°C 57.2°F14.0°C 93% 4.0 mph WSW6.4 kmh WSW 13.9 mph22.4 kmh 29.91 in1012.9 mb 0.11 in2.8 mm 0.00 in0.0 mm 0.13 in3.3 mm
11:35 AM 59.4°F15.2°C 57.6°F14.2°C 94% 2.9 mph WSW4.7 kmh WSW 8.5 mph13.7 kmh 29.91 in1012.9 mb 0.11 in2.8 mm 0.00 in0.0 mm 0.13 in3.3 mm
11:40 AM 59.4°F15.2°C 57.4°F14.1°C 93% 4.5 mph W7.2 kmh W 10.5 mph16.9 kmh 29.91 in1012.9 mb 0.10 in2.5 mm 0.00 in0.0 mm 0.13 in3.3 mm
11:45 AM 59.4°F15.2°C 57.0°F13.9°C 92% 3.8 mph WSW6.1 kmh WSW 9.6 mph15.4 kmh 29.91 in1012.9 mb 0.09 in2.3 mm 0.00 in0.0 mm 0.13 in3.3 mm
11:50 AM 59.5°F15.3°C 56.8°F13.8°C 91% 5.8 mph W9.3 kmh W 11.6 mph18.7 kmh 29.91 in1012.9 mb 0.08 in2.0 mm 0.00 in0.0 mm 0.13 in3.3 mm
11:55 AM 60.1°F15.6°C 56.1°F13.4°C 87% 5.4 mph N8.7 kmh N 11.6 mph18.7 kmh 29.91 in1012.9 mb 0.06 in1.5 mm 0.00 in0.0 mm 0.13 in3.3 mm
12:00 PM 60.8°F16.0°C 55.9°F13.3°C 84% 6.5 mph W10.5 kmh W 13.9 mph22.4 kmh 29.91 in1012.9 mb 0.03 in0.8 mm 0.00 in0.0 mm 0.13 in3.3 mm
12:05 PM 61.5°F16.4°C 56.3°F13.5°C 83% 5.4 mph SW8.7 kmh SW 13.9 mph22.4 kmh 29.91 in1012.9 mb 0.01 in0.3 mm 0.00 in0.0 mm 0.13 in3.3 mm
12:10 PM 61.9°F16.6°C 55.6°F13.1°C 80% 7.4 mph WSW11.9 kmh WSW 12.8 mph20.6 kmh 29.91 in1012.9 mb 0.01 in0.3 mm 0.00 in0.0 mm 0.13 in3.3 mm
12:15 PM 62.4°F16.9°C 54.7°F12.6°C 76% 6.9 mph WNW11.1 kmh WNW 11.6 mph18.7 kmh 29.91 in1012.9 mb 0.00 in0.0 mm 0.00 in0.0 mm 0.13 in3.3 mm
12:20 PM 63.0°F17.2°C 55.6°F13.1°C 77% 4.5 mph NW7.2 kmh NW 11.6 mph18.7 kmh 29.91 in1012.9 mb 0.00 in0.0 mm 0.00 in0.0 mm 0.13 in3.3 mm
12:25 PM 63.1°F17.3°C 55.8°F13.2°C 77% 7.2 mph NW11.6 kmh NW 13.9 mph22.4 kmh 29.91 in1012.9 mb 0.00 in0.0 mm 0.00 in0.0 mm 0.13 in3.3 mm
12:30 PM 63.0°F17.2°C 54.1°F12.3°C 73% 7.4 mph W11.9 kmh W 12.8 mph20.6 kmh 29.91 in1012.9 mb 0.00 in0.0 mm 0.00 in0.0 mm 0.13 in3.3 mm
12:35 PM 63.1°F17.3°C 54.7°F12.6°C 74% 5.1 mph WNW8.2 kmh WNW 10.5 mph16.9 kmh 29.91 in1012.9 mb 0.00 in0.0 mm 0.00 in0.0 mm 0.13 in3.3 mm
12:40 PM 63.5°F17.5°C 54.7°F12.6°C 73% 5.4 mph NW8.7 kmh NW 13.9 mph22.4 kmh 29.91 in1012.9 mb 0.00 in0.0 mm 0.00 in0.0 mm 0.13 in3.3 mm
12:45 PM 63.3°F17.4°C 53.8°F12.1°C 71% 6.5 mph WSW10.5 kmh WSW 12.8 mph20.6 kmh 29.91 in1012.9 mb 0.00 in0.0 mm 0.00 in0.0 mm 0.13 in3.3 mm
12:50 PM 63.5°F17.5°C 54.0°F12.2°C 71% 5.8 mph NW9.3 kmh NW 12.8 mph20.6 kmh 29.91 in1012.9 mb 0.00 in0.0 mm 0.00 in0.0 mm 0.13 in3.3 mm
12:55 PM 63.1°F17.3°C 52.9°F11.6°C 69% 6.7 mph WSW10.8 kmh WSW 13.9 mph22.4 kmh 29.91 in1012.9 mb 0.00 in0.0 mm 0.00 in0.0 mm 0.13 in3.3 mm
01:00 PM 63.3°F17.4°C 52.5°F11.4°C 68% 7.6 mph SW12.2 kmh SW 13.9 mph22.4 kmh 29.91 in1012.9 mb 0.00 in0.0 mm 0.00 in0.0 mm 0.13 in3.3 mm
01:05 PM 63.9°F17.7°C 53.1°F11.7°C 68% 5.4 mph WSW8.7 kmh WSW 15.9 mph25.6 kmh 29.91 in1012.9 mb 0.00 in0.0 mm 0.00 in0.0 mm 0.13 in3.3 mm
01:10 PM 64.0°F17.8°C 53.2°F11.8°C 68% 5.6 mph NW9.0 kmh NW 11.6 mph18.7 kmh 29.91 in1012.9 mb 0.00 in0.0 mm 0.00 in0.0 mm 0.13 in3.3 mm
01:15 PM 64.6°F18.1°C 52.9°F11.6°C 66% 6.0 mph NNW9.7 kmh NNW 13.9 mph22.4 kmh 29.91 in1012.9 mb 0.00 in0.0 mm 0.00 in0.0 mm 0.13 in3.3 mm
01:20 PM 64.9°F18.3°C 52.0°F11.1°C 63% 6.9 mph W11.1 kmh W 10.5 mph16.9 kmh 29.91 in1012.9 mb 0.00 in0.0 mm 0.00 in0.0 mm 0.13 in3.3 mm
01:25 PM 64.8°F18.2°C 51.8°F11.0°C 63% 6.5 mph SW10.5 kmh SW 14.8 mph23.8 kmh 29.91 in1012.9 mb 0.00 in0.0 mm 0.00 in0.0 mm 0.13 in3.3 mm
01:30 PM 64.8°F18.2°C 52.7°F11.5°C 65% 7.2 mph WSW11.6 kmh WSW 15.9 mph25.6 kmh 29.91 in1012.9 mb 0.00 in0.0 mm 0.00 in0.0 mm 0.13 in3.3 mm
01:35 PM 64.8°F18.2°C 52.7°F11.5°C 65% 7.6 mph WSW12.2 kmh WSW 17.0 mph27.4 kmh 29.91 in1012.9 mb 0.00 in0.0 mm 0.00 in0.0 mm 0.13 in3.3 mm
01:40 PM 64.8°F18.2°C 54.0°F12.2°C 68% 5.8 mph WSW9.3 kmh WSW 13.9 mph22.4 kmh 29.90 in1012.5 mb 0.00 in0.0 mm 0.00 in0.0 mm 0.13 in3.3 mm
01:45 PM 64.6°F18.1°C 52.9°F11.6°C 66% 10.7 mph W17.2 kmh W 17.0 mph27.4 kmh 29.90 in1012.5 mb 0.00 in0.0 mm 0.00 in0.0 mm 0.13 in3.3 mm
01:50 PM 64.8°F18.2°C 53.1°F11.7°C 66% 7.8 mph WSW12.6 kmh WSW 17.0 mph27.4 kmh 29.90 in1012.5 mb 0.00 in0.0 mm 0.00 in0.0 mm 0.13 in3.3 mm
01:55 PM 65.1°F18.4°C 52.7°F11.5°C 64% 7.8 mph NW12.6 kmh NW 14.8 mph23.8 kmh 29.91 in1012.9 mb 0.00 in0.0 mm 0.00 in0.0 mm 0.13 in3.3 mm
02:00 PM 64.8°F18.2°C 52.3°F11.3°C 64% 7.2 mph WSW11.6 kmh WSW 14.8 mph23.8 kmh 29.91 in1012.9 mb 0.00 in0.0 mm 0.00 in0.0 mm 0.13 in3.3 mm
02:05 PM 64.9°F18.3°C 53.8°F12.1°C 67% 6.0 mph W9.7 kmh W 17.0 mph27.4 kmh 29.91 in1012.9 mb 0.00 in0.0 mm 0.00 in0.0 mm 0.13 in3.3 mm
02:10 PM 64.8°F18.2°C 52.7°F11.5°C 65% 7.2 mph W11.6 kmh W 15.9 mph25.6 kmh 29.91 in1012.9 mb 0.00 in0.0 mm 0.00 in0.0 mm 0.13 in3.3 mm
02:15 PM 65.3°F18.5°C 54.1°F12.3°C 67% 5.6 mph W9.0 kmh W 13.9 mph22.4 kmh 29.91 in1012.9 mb 0.00 in0.0 mm 0.00 in0.0 mm 0.13 in3.3 mm
02:20 PM 64.9°F18.3°C 53.2°F11.8°C 66% 7.6 mph W12.2 kmh W 14.8 mph23.8 kmh 29.91 in1012.9 mb 0.00 in0.0 mm 0.00 in0.0 mm 0.13 in3.3 mm
02:25 PM 64.9°F18.3°C 52.9°F11.6°C 65% 6.9 mph WNW11.1 kmh WNW 11.6 mph18.7 kmh 29.91 in1012.9 mb 0.00 in0.0 mm 0.00 in0.0 mm 0.13 in3.3 mm
02:30 PM 64.8°F18.2°C 53.1°F11.7°C 66% 4.9 mph W7.9 kmh W 14.8 mph23.8 kmh 29.91 in1012.9 mb 0.00 in0.0 mm 0.00 in0.0 mm 0.13 in3.3 mm
02:35 PM 65.1°F18.4°C 53.1°F11.7°C 65% 6.0 mph WNW9.7 kmh WNW 12.8 mph20.6 kmh 29.91 in1012.9 mb 0.00 in0.0 mm 0.00 in0.0 mm 0.13 in3.3 mm
02:40 PM 64.8°F18.2°C 52.3°F11.3°C 64% 6.3 mph WSW10.1 kmh WSW 15.9 mph25.6 kmh 29.91 in1012.9 mb 0.00 in0.0 mm 0.00 in0.0 mm 0.13 in3.3 mm
02:45 PM 64.6°F18.1°C 52.2°F11.2°C 64% 8.5 mph WNW13.7 kmh WNW 17.0 mph27.4 kmh 29.90 in1012.5 mb 0.00 in0.0 mm 0.00 in0.0 mm 0.13 in3.3 mm
02:50 PM 64.6°F18.1°C 52.2°F11.2°C 64% 7.4 mph NW11.9 kmh NW 13.9 mph22.4 kmh 29.90 in1012.5 mb 0.00 in0.0 mm 0.00 in0.0 mm 0.13 in3.3 mm
02:55 PM 64.6°F18.1°C 52.5°F11.4°C 65% 6.9 mph SW11.1 kmh SW 18.1 mph29.1 kmh 29.91 in1012.9 mb 0.00 in0.0 mm 0.00 in0.0 mm 0.13 in3.3 mm
03:00 PM 64.0°F17.8°C 52.0°F11.1°C 65% 7.4 mph W11.9 kmh W 19.0 mph30.6 kmh 29.91 in1012.9 mb 0.00 in0.0 mm 0.00 in0.0 mm 0.13 in3.3 mm
03:05 PM 64.2°F17.9°C 51.8°F11.0°C 64% 6.5 mph SW10.5 kmh SW 11.6 mph18.7 kmh 29.91 in1012.9 mb 0.00 in0.0 mm 0.00 in0.0 mm 0.13 in3.3 mm
03:10 PM 64.2°F17.9°C 52.2°F11.2°C 65% 6.0 mph N9.7 kmh N 11.6 mph18.7 kmh 29.91 in1012.9 mb 0.00 in0.0 mm 0.00 in0.0 mm 0.13 in3.3 mm
03:15 PM 64.2°F17.9°C 52.2°F11.2°C 65% 7.2 mph NW11.6 kmh NW 18.1 mph29.1 kmh 29.91 in1012.9 mb 0.00 in0.0 mm 0.00 in0.0 mm 0.13 in3.3 mm
03:20 PM 63.9°F17.7°C 51.4°F10.8°C 64% 7.6 mph WSW12.2 kmh WSW 21.3 mph34.3 kmh 29.91 in1012.9 mb 0.00 in0.0 mm 0.00 in0.0 mm 0.13 in3.3 mm
03:25 PM 64.0°F17.8°C 50.7°F10.4°C 62% 9.4 mph SW15.1 kmh SW 17.0 mph27.4 kmh 29.91 in1012.9 mb 0.00 in0.0 mm 0.00 in0.0 mm 0.13 in3.3 mm
03:30 PM 63.9°F17.7°C 51.1°F10.6°C 63% 7.4 mph SW11.9 kmh SW 17.0 mph27.4 kmh 29.91 in1012.9 mb 0.00 in0.0 mm 0.00 in0.0 mm 0.13 in3.3 mm
03:35 PM 64.0°F17.8°C 50.4°F10.2°C 61% 9.4 mph WNW15.1 kmh WNW 13.9 mph22.4 kmh 29.91 in1012.9 mb 0.00 in0.0 mm 0.00 in0.0 mm 0.13 in3.3 mm
03:40 PM 63.7°F17.6°C 51.3°F10.7°C 64% 8.5 mph NW13.7 kmh NW 15.9 mph25.6 kmh 29.91 in1012.9 mb 0.00 in0.0 mm 0.00 in0.0 mm 0.13 in3.3 mm
03:45 PM 64.0°F17.8°C 52.0°F11.1°C 65% 5.4 mph WNW8.7 kmh WNW 15.9 mph25.6 kmh 29.91 in1012.9 mb 0.00 in0.0 mm 0.00 in0.0 mm 0.13 in3.3 mm
03:50 PM 64.0°F17.8°C 51.3°F10.7°C 63% 7.4 mph SW11.9 kmh SW 14.8 mph23.8 kmh 29.91 in1012.9 mb 0.00 in0.0 mm 0.00 in0.0 mm 0.13 in3.3 mm
03:55 PM 64.2°F17.9°C 51.4°F10.8°C 63% 4.9 mph WNW7.9 kmh WNW 13.9 mph22.4 kmh 29.91 in1012.9 mb 0.00 in0.0 mm 0.00 in0.0 mm 0.13 in3.3 mm
04:00 PM 64.0°F17.8°C 49.8°F9.9°C 60% 6.9 mph W11.1 kmh W 11.6 mph18.7 kmh 29.91 in1012.9 mb 0.00 in0.0 mm 0.00 in0.0 mm 0.13 in3.3 mm
04:05 PM 64.2°F17.9°C 51.4°F10.8°C 63% 4.7 mph SW7.6 kmh SW 11.6 mph18.7 kmh 29.91 in1012.9 mb 0.00 in0.0 mm 0.00 in0.0 mm 0.13 in3.3 mm
04:10 PM 64.4°F18.0°C 51.6°F10.9°C 63% 4.3 mph WSW6.9 kmh WSW 11.6 mph18.7 kmh 29.91 in1012.9 mb 0.00 in0.0 mm 0.00 in0.0 mm 0.13 in3.3 mm
04:15 PM 64.2°F17.9°C 50.5°F10.3°C 61% 4.7 mph WSW7.6 kmh WSW 12.8 mph20.6 kmh 29.91 in1012.9 mb 0.00 in0.0 mm 0.00 in0.0 mm 0.13 in3.3 mm
04:20 PM 64.2°F17.9°C 50.5°F10.3°C 61% 6.9 mph WNW11.1 kmh WNW 17.0 mph27.4 kmh 29.91 in1012.9 mb 0.00 in0.0 mm 0.00 in0.0 mm 0.13 in3.3 mm
04:25 PM 63.7°F17.6°C 50.4°F10.2°C 62% 5.8 mph WNW9.3 kmh WNW 13.9 mph22.4 kmh 29.91 in1012.9 mb 0.00 in0.0 mm 0.00 in0.0 mm 0.13 in3.3 mm
04:30 PM 63.3°F17.4°C 50.5°F10.3°C 63% 7.2 mph WSW11.6 kmh WSW 18.1 mph29.1 kmh 29.91 in1012.9 mb 0.00 in0.0 mm 0.00 in0.0 mm 0.13 in3.3 mm
04:35 PM 63.3°F17.4°C 50.9°F10.5°C 64% 8.1 mph SW13.0 kmh SW 14.8 mph23.8 kmh 29.91 in1012.9 mb 0.00 in0.0 mm 0.00 in0.0 mm 0.13 in3.3 mm
04:40 PM 63.7°F17.6°C 51.3°F10.7°C 64% 6.0 mph WNW9.7 kmh WNW 11.6 mph18.7 kmh 29.91 in1012.9 mb 0.00 in0.0 mm 0.00 in0.0 mm 0.13 in3.3 mm
04:45 PM 63.3°F17.4°C 50.5°F10.3°C 63% 6.7 mph WNW10.8 kmh WNW 14.8 mph23.8 kmh 29.91 in1012.9 mb 0.00 in0.0 mm 0.00 in0.0 mm 0.13 in3.3 mm
04:50 PM 63.3°F17.4°C 49.3°F9.6°C 60% 6.5 mph WSW10.5 kmh WSW 13.9 mph22.4 kmh 29.91 in1012.9 mb 0.00 in0.0 mm 0.00 in0.0 mm 0.13 in3.3 mm
04:55 PM 63.1°F17.3°C 48.6°F9.2°C 59% 7.2 mph NW11.6 kmh NW 11.6 mph18.7 kmh 29.91 in1012.9 mb 0.00 in0.0 mm 0.00 in0.0 mm 0.13 in3.3 mm
05:00 PM 63.1°F17.3°C 48.2°F9.0°C 58% 7.4 mph WNW11.9 kmh WNW 17.0 mph27.4 kmh 29.92 in1013.2 mb 0.00 in0.0 mm 0.00 in0.0 mm 0.13 in3.3 mm
05:05 PM 63.0°F17.2°C 48.9°F9.4°C 60% 5.4 mph NW8.7 kmh NW 13.9 mph22.4 kmh 29.92 in1013.2 mb 0.00 in0.0 mm 0.00 in0.0 mm 0.13 in3.3 mm
05:10 PM 62.8°F17.1°C 49.1°F9.5°C 61% 7.2 mph NW11.6 kmh NW 13.9 mph22.4 kmh 29.91 in1012.9 mb 0.00 in0.0 mm 0.00 in0.0 mm 0.13 in3.3 mm
05:15 PM 62.2°F16.8°C 50.0°F10.0°C 64% 5.4 mph NNW8.7 kmh NNW 10.5 mph16.9 kmh 29.92 in1013.2 mb 0.00 in0.0 mm 0.00 in0.0 mm 0.13 in3.3 mm
05:20 PM 61.9°F16.6°C 50.4°F10.2°C 66% 3.1 mph W5.0 kmh W 12.8 mph20.6 kmh 29.92 in1013.2 mb 0.00 in0.0 mm 0.00 in0.0 mm 0.13 in3.3 mm
05:25 PM 61.9°F16.6°C 51.3°F10.7°C 68% 4.9 mph NW7.9 kmh NW 8.5 mph13.7 kmh 29.92 in1013.2 mb 0.00 in0.0 mm 0.00 in0.0 mm 0.13 in3.3 mm
05:30 PM 61.9°F16.6°C 51.3°F10.7°C 68% 5.1 mph WSW8.2 kmh WSW 8.5 mph13.7 kmh 29.92 in1013.2 mb 0.00 in0.0 mm 0.00 in0.0 mm 0.13 in3.3 mm
05:35 PM 62.1°F16.7°C 50.9°F10.5°C 67% 4.7 mph SSW7.6 kmh SSW 9.6 mph15.4 kmh 29.92 in1013.2 mb 0.00 in0.0 mm 0.00 in0.0 mm 0.13 in3.3 mm
05:40 PM 61.5°F16.4°C 49.3°F9.6°C 64% 6.9 mph NW11.1 kmh NW 12.8 mph20.6 kmh 29.92 in1013.2 mb 0.00 in0.0 mm 0.00 in0.0 mm 0.13 in3.3 mm
05:45 PM 61.3°F16.3°C 49.5°F9.7°C 65% 5.6 mph W9.0 kmh W 13.9 mph22.4 kmh 29.92 in1013.2 mb 0.00 in0.0 mm 0.00 in0.0 mm 0.13 in3.3 mm
05:50 PM 61.2°F16.2°C 50.5°F10.3°C 68% 6.0 mph W9.7 kmh W 11.6 mph18.7 kmh 29.92 in1013.2 mb 0.00 in0.0 mm 0.00 in0.0 mm 0.13 in3.3 mm
05:55 PM 61.2°F16.2°C 51.3°F10.7°C 70% 4.0 mph NNE6.4 kmh NNE 7.4 mph11.9 kmh 29.92 in1013.2 mb 0.00 in0.0 mm 0.00 in0.0 mm 0.13 in3.3 mm
06:00 PM 61.3°F16.3°C 51.4°F10.8°C 70% 2.7 mph W4.3 kmh W 6.3 mph10.1 kmh 29.91 in1012.9 mb 0.00 in0.0 mm 0.00 in0.0 mm 0.13 in3.3 mm
06:05 PM 61.3°F16.3°C 51.1°F10.6°C 69% 6.0 mph SSW9.7 kmh SSW 13.9 mph22.4 kmh 29.92 in1013.2 mb 0.00 in0.0 mm 0.00 in0.0 mm 0.13 in3.3 mm
06:10 PM 61.0°F16.1°C 50.4°F10.2°C 68% 7.6 mph WSW12.2 kmh WSW 17.0 mph27.4 kmh 29.92 in1013.2 mb 0.00 in0.0 mm 0.00 in0.0 mm 0.13 in3.3 mm
06:15 PM 60.8°F16.0°C 50.5°F10.3°C 69% 4.7 mph WSW7.6 kmh WSW 10.5 mph16.9 kmh 29.92 in1013.2 mb 0.00 in0.0 mm 0.00 in0.0 mm 0.13 in3.3 mm
06:20 PM 60.4°F15.8°C 50.2°F10.1°C 69% 5.1 mph SW8.2 kmh SW 11.6 mph18.7 kmh 29.92 in1013.2 mb 0.00 in0.0 mm 0.00 in0.0 mm 0.13 in3.3 mm
06:25 PM 60.4°F15.8°C 50.5°F10.3°C 70% 5.4 mph WSW8.7 kmh WSW 10.5 mph16.9 kmh 29.92 in1013.2 mb 0.00 in0.0 mm 0.00 in0.0 mm 0.13 in3.3 mm
06:30 PM 60.3°F15.7°C 50.9°F10.5°C 71% 4.0 mph W6.4 kmh W 9.6 mph15.4 kmh 29.92 in1013.2 mb 0.00 in0.0 mm 0.00 in0.0 mm 0.13 in3.3 mm
06:35 PM 60.1°F15.6°C 50.7°F10.4°C 71% 4.3 mph WNW6.9 kmh WNW 9.6 mph15.4 kmh 29.93 in1013.5 mb 0.00 in0.0 mm 0.00 in0.0 mm 0.13 in3.3 mm
06:40 PM 60.1°F15.6°C 51.1°F10.6°C 72% 3.4 mph WSW5.5 kmh WSW 9.6 mph15.4 kmh 29.93 in1013.5 mb 0.00 in0.0 mm 0.00 in0.0 mm 0.13 in3.3 mm
06:45 PM 59.7°F15.4°C 50.4°F10.2°C 71% 4.7 mph NNW7.6 kmh NNW 9.6 mph15.4 kmh 29.93 in1013.5 mb 0.00 in0.0 mm 0.00 in0.0 mm 0.13 in3.3 mm
06:50 PM 59.5°F15.3°C 50.5°F10.3°C 72% 2.5 mph NW4.0 kmh NW 7.4 mph11.9 kmh 29.93 in1013.5 mb 0.00 in0.0 mm 0.00 in0.0 mm 0.13 in3.3 mm
06:55 PM 59.5°F15.3°C 50.9°F10.5°C 73% 4.5 mph W7.2 kmh W 7.4 mph11.9 kmh 29.93 in1013.5 mb 0.00 in0.0 mm 0.00 in0.0 mm 0.13 in3.3 mm
07:00 PM 59.4°F15.2°C 50.7°F10.4°C 73% 2.2 mph WSW3.5 kmh WSW 8.5 mph13.7 kmh 29.93 in1013.5 mb 0.00 in0.0 mm 0.00 in0.0 mm 0.13 in3.3 mm
07:05 PM 59.4°F15.2°C 51.1°F10.6°C 74% 5.6 mph WNW9.0 kmh WNW 12.8 mph20.6 kmh 29.93 in1013.5 mb 0.00 in0.0 mm 0.00 in0.0 mm 0.13 in3.3 mm
07:10 PM 59.2°F15.1°C 50.9°F10.5°C 74% 2.7 mph WSW4.3 kmh WSW 7.4 mph11.9 kmh 29.93 in1013.5 mb 0.00 in0.0 mm 0.00 in0.0 mm 0.13 in3.3 mm
07:15 PM 59.2°F15.1°C 50.9°F10.5°C 74% 4.7 mph NW7.6 kmh NW 8.5 mph13.7 kmh 29.93 in1013.5 mb 0.00 in0.0 mm 0.00 in0.0 mm 0.13 in3.3 mm
07:20 PM 58.8°F14.9°C 50.2°F10.1°C 73% 4.7 mph NW7.6 kmh NW 12.8 mph20.6 kmh 29.93 in1013.5 mb 0.00 in0.0 mm 0.00 in0.0 mm 0.13 in3.3 mm
07:25 PM 58.8°F14.9°C 49.8°F9.9°C 72% 6.3 mph WSW10.1 kmh WSW 10.5 mph16.9 kmh 29.93 in1013.5 mb 0.00 in0.0 mm 0.00 in0.0 mm 0.13 in3.3 mm
07:30 PM 58.8°F14.9°C 50.2°F10.1°C 73% 4.0 mph WSW6.4 kmh WSW 8.5 mph13.7 kmh 29.93 in1013.5 mb 0.00 in0.0 mm 0.00 in0.0 mm 0.13 in3.3 mm
07:35 PM 58.8°F14.9°C 50.2°F10.1°C 73% 4.0 mph W6.4 kmh W 8.5 mph13.7 kmh 29.94 in1013.9 mb 0.00 in0.0 mm 0.00 in0.0 mm 0.13 in3.3 mm
07:40 PM 58.8°F14.9°C 50.5°F10.3°C 74% 3.4 mph W5.5 kmh W 10.5 mph16.9 kmh 29.94 in1013.9 mb 0.00 in0.0 mm 0.00 in0.0 mm 0.13 in3.3 mm
07:45 PM 58.8°F14.9°C 50.5°F10.3°C 74% 6.0 mph NW9.7 kmh NW 11.6 mph18.7 kmh 29.94 in1013.9 mb 0.00 in0.0 mm 0.00 in0.0 mm 0.13 in3.3 mm
07:50 PM 58.8°F14.9°C 50.2°F10.1°C 73% 3.4 mph NW5.5 kmh NW 15.9 mph25.6 kmh 29.94 in1013.9 mb 0.00 in0.0 mm 0.00 in0.0 mm 0.13 in3.3 mm
07:55 PM 58.6°F14.8°C 50.0°F10.0°C 73% 3.1 mph WNW5.0 kmh WNW 5.4 mph8.7 kmh 29.94 in1013.9 mb 0.00 in0.0 mm 0.00 in0.0 mm 0.13 in3.3 mm
08:00 PM 58.5°F14.7°C 49.8°F9.9°C 73% 2.7 mph NNW4.3 kmh NNW 9.6 mph15.4 kmh 29.94 in1013.9 mb 0.00 in0.0 mm 0.00 in0.0 mm 0.13 in3.3 mm
08:05 PM 58.5°F14.7°C 49.8°F9.9°C 73% 4.0 mph WNW6.4 kmh WNW 7.4 mph11.9 kmh 29.94 in1013.9 mb 0.00 in0.0 mm 0.00 in0.0 mm 0.13 in3.3 mm
08:10 PM 58.5°F14.7°C 50.2°F10.1°C 74% 2.2 mph NW3.5 kmh NW 6.3 mph10.1 kmh 29.94 in1013.9 mb 0.00 in0.0 mm 0.00 in0.0 mm 0.13 in3.3 mm
08:15 PM 58.5°F14.7°C 50.2°F10.1°C 74% 1.1 mph WNW1.8 kmh WNW 5.4 mph8.7 kmh 29.94 in1013.9 mb 0.00 in0.0 mm 0.00 in0.0 mm 0.13 in3.3 mm
08:20 PM 58.3°F14.6°C 50.0°F10.0°C 74% 4.0 mph WSW6.4 kmh WSW 8.5 mph13.7 kmh 29.95 in1014.2 mb 0.00 in0.0 mm 0.00 in0.0 mm 0.13 in3.3 mm
08:25 PM 58.3°F14.6°C 50.0°F10.0°C 74% 3.1 mph NW5.0 kmh NW 8.5 mph13.7 kmh 29.95 in1014.2 mb 0.00 in0.0 mm 0.00 in0.0 mm 0.13 in3.3 mm
08:30 PM 58.1°F14.5°C 49.8°F9.9°C 74% 3.4 mph WSW5.5 kmh WSW 7.4 mph11.9 kmh 29.95 in1014.2 mb 0.00 in0.0 mm 0.00 in0.0 mm 0.13 in3.3 mm
08:35 PM 57.9°F14.4°C 49.6°F9.8°C 74% 3.4 mph WSW5.5 kmh WSW 8.5 mph13.7 kmh 29.95 in1014.2 mb 0.00 in0.0 mm 0.00 in0.0 mm 0.13 in3.3 mm
08:40 PM 57.9°F14.4°C 49.6°F9.8°C 74% 1.8 mph SW2.9 kmh SW 8.5 mph13.7 kmh 29.95 in1014.2 mb 0.00 in0.0 mm 0.00 in0.0 mm 0.13 in3.3 mm
08:45 PM 57.9°F14.4°C 49.6°F9.8°C 74% 2.9 mph WSW4.7 kmh WSW 7.4 mph11.9 kmh 29.95 in1014.2 mb 0.00 in0.0 mm 0.00 in0.0 mm 0.13 in3.3 mm
08:50 PM 57.7°F14.3°C 49.8°F9.9°C 75% 3.1 mph NW5.0 kmh NW 6.3 mph10.1 kmh 29.95 in1014.2 mb 0.00 in0.0 mm 0.00 in0.0 mm 0.13 in3.3 mm
08:55 PM 57.9°F14.4°C 50.0°F10.0°C 75% 2.0 mph W3.2 kmh W 8.5 mph13.7 kmh 29.95 in1014.2 mb 0.00 in0.0 mm 0.00 in0.0 mm 0.13 in3.3 mm
09:00 PM 57.7°F14.3°C 49.8°F9.9°C 75% 2.2 mph WNW3.5 kmh WNW 4.3 mph6.9 kmh 29.95 in1014.2 mb 0.00 in0.0 mm 0.00 in0.0 mm 0.13 in3.3 mm
09:05 PM 57.7°F14.3°C 49.8°F9.9°C 75% 1.6 mph NW2.6 kmh NW 4.3 mph6.9 kmh 29.96 in1014.6 mb 0.00 in0.0 mm 0.00 in0.0 mm 0.13 in3.3 mm
09:10 PM 57.7°F14.3°C 50.2°F10.1°C 76% 3.1 mph W5.0 kmh W 5.4 mph8.7 kmh 29.96 in1014.6 mb 0.00 in0.0 mm 0.00 in0.0 mm 0.13 in3.3 mm
09:15 PM 57.7°F14.3°C 50.2°F10.1°C 76% 2.0 mph WSW3.2 kmh WSW 5.4 mph8.7 kmh 29.96 in1014.6 mb 0.00 in0.0 mm 0.00 in0.0 mm 0.13 in3.3 mm
09:20 PM 57.7°F14.3°C 50.2°F10.1°C 76% 2.2 mph WNW3.5 kmh WNW 5.4 mph8.7 kmh 29.96 in1014.6 mb 0.00 in0.0 mm 0.00 in0.0 mm 0.13 in3.3 mm
09:25 PM 57.7°F14.3°C 50.2°F10.1°C 76% 1.3 mph N2.1 kmh N 6.3 mph10.1 kmh 29.96 in1014.6 mb 0.00 in0.0 mm 0.00 in0.0 mm 0.13 in3.3 mm
09:30 PM 57.7°F14.3°C 50.5°F10.3°C 77% 2.7 mph WNW4.3 kmh WNW 7.4 mph11.9 kmh 29.96 in1014.6 mb 0.00 in0.0 mm 0.00 in0.0 mm 0.13 in3.3 mm
09:35 PM 57.6°F14.2°C 50.4°F10.2°C 77% 3.1 mph WSW5.0 kmh WSW 6.3 mph10.1 kmh 29.96 in1014.6 mb 0.00 in0.0 mm 0.00 in0.0 mm 0.13 in3.3 mm
09:40 PM 57.6°F14.2°C 50.4°F10.2°C 77% 2.2 mph NW3.5 kmh NW 6.3 mph10.1 kmh 29.96 in1014.6 mb 0.00 in0.0 mm 0.00 in0.0 mm 0.13 in3.3 mm
09:45 PM 57.4°F14.1°C 50.2°F10.1°C 77% 1.8 mph N2.9 kmh N 6.3 mph10.1 kmh 29.96 in1014.6 mb 0.00 in0.0 mm 0.00 in0.0 mm 0.13 in3.3 mm
09:50 PM 57.4°F14.1°C 50.2°F10.1°C 77% 1.8 mph NW2.9 kmh NW 4.3 mph6.9 kmh 29.96 in1014.6 mb 0.00 in0.0 mm 0.00 in0.0 mm 0.13 in3.3 mm
09:55 PM 57.2°F14.0°C 50.0°F10.0°C 77% 1.1 mph W1.8 kmh W 4.3 mph6.9 kmh 29.96 in1014.6 mb 0.00 in0.0 mm 0.00 in0.0 mm 0.13 in3.3 mm
10:00 PM 57.0°F13.9°C 50.2°F10.1°C 78% 1.1 mph WSW1.8 kmh WSW 5.4 mph8.7 kmh 29.96 in1014.6 mb 0.00 in0.0 mm 0.00 in0.0 mm 0.13 in3.3 mm
10:05 PM 57.0°F13.9°C 50.2°F10.1°C 78% 1.1 mph WNW1.8 kmh WNW 6.3 mph10.1 kmh 29.95 in1014.2 mb 0.00 in0.0 mm 0.00 in0.0 mm 0.13 in3.3 mm
10:10 PM 57.0°F13.9°C 50.2°F10.1°C 78% 2.7 mph NW4.3 kmh NW 4.3 mph6.9 kmh 29.95 in1014.2 mb 0.00 in0.0 mm 0.00 in0.0 mm 0.13 in3.3 mm
10:15 PM 57.0°F13.9°C 50.2°F10.1°C 78% 0.7 mph NW1.1 kmh NW 4.3 mph6.9 kmh 29.95 in1014.2 mb 0.00 in0.0 mm 0.00 in0.0 mm 0.13 in3.3 mm
10:20 PM 57.0°F13.9°C 50.5°F10.3°C 79% 1.6 mph NW2.6 kmh NW 5.4 mph8.7 kmh 29.96 in1014.6 mb 0.00 in0.0 mm 0.00 in0.0 mm 0.13 in3.3 mm
10:25 PM 57.0°F13.9°C 50.5°F10.3°C 79% 0.9 mph W1.4 kmh W 5.4 mph8.7 kmh 29.95 in1014.2 mb 0.00 in0.0 mm 0.00 in0.0 mm 0.13 in3.3 mm
10:30 PM 56.8°F13.8°C 50.4°F10.2°C 79% 0.4 mph NW0.6 kmh NW 3.1 mph5.0 kmh 29.96 in1014.6 mb 0.00 in0.0 mm 0.00 in0.0 mm 0.13 in3.3 mm
10:35 PM 56.7°F13.7°C 50.5°F10.3°C 80% 0.9 mph W1.4 kmh W 3.1 mph5.0 kmh 29.96 in1014.6 mb 0.00 in0.0 mm 0.00 in0.0 mm 0.13 in3.3 mm
10:40 PM 56.8°F13.8°C 50.7°F10.4°C 80% 1.3 mph NW2.1 kmh NW 3.1 mph5.0 kmh 29.95 in1014.2 mb 0.00 in0.0 mm 0.00 in0.0 mm 0.13 in3.3 mm
10:45 PM 56.8°F13.8°C 50.7°F10.4°C 80% 1.3 mph W2.1 kmh W 3.1 mph5.0 kmh 29.95 in1014.2 mb 0.00 in0.0 mm 0.00 in0.0 mm 0.13 in3.3 mm
10:50 PM 56.8°F13.8°C 50.7°F10.4°C 80% Calm Calm 3.1 mph5.0 kmh 29.95 in1014.2 mb 0.00 in0.0 mm 0.00 in0.0 mm 0.13 in3.3 mm
10:55 PM 56.7°F13.7°C 50.5°F10.3°C 80% 0.4 mph SSW0.6 kmh SSW 3.1 mph5.0 kmh 29.95 in1014.2 mb 0.00 in0.0 mm 0.00 in0.0 mm 0.13 in3.3 mm
11:00 PM 56.7°F13.7°C 50.5°F10.3°C 80% 0.2 mph NW0.3 kmh NW 4.3 mph6.9 kmh 29.96 in1014.6 mb 0.00 in0.0 mm 0.00 in0.0 mm 0.13 in3.3 mm
11:05 PM 56.7°F13.7°C 50.5°F10.3°C 80% 0.9 mph WSW1.4 kmh WSW 4.3 mph6.9 kmh 29.96 in1014.6 mb 0.00 in0.0 mm 0.00 in0.0 mm 0.13 in3.3 mm
11:10 PM 56.7°F13.7°C 50.5°F10.3°C 80% 1.1 mph NW1.8 kmh NW 3.1 mph5.0 kmh 29.96 in1014.6 mb 0.00 in0.0 mm 0.00 in0.0 mm 0.13 in3.3 mm
11:15 PM 56.7°F13.7°C 50.5°F10.3°C 80% 2.7 mph W4.3 kmh W 5.4 mph8.7 kmh 29.96 in1014.6 mb 0.00 in0.0 mm 0.00 in0.0 mm 0.13 in3.3 mm
11:20 PM 56.7°F13.7°C 50.5°F10.3°C 80% 1.8 mph NW2.9 kmh NW 6.3 mph10.1 kmh 29.96 in1014.6 mb 0.00 in0.0 mm 0.00 in0.0 mm 0.13 in3.3 mm
11:25 PM 56.7°F13.7°C 50.5°F10.3°C 80% 1.1 mph WNW1.8 kmh WNW 4.3 mph6.9 kmh 29.96 in1014.6 mb 0.00 in0.0 mm 0.00 in0.0 mm 0.13 in3.3 mm
11:30 PM 56.5°F13.6°C 50.4°F10.2°C 80% 0.4 mph W0.6 kmh W 2.0 mph3.2 kmh 29.96 in1014.6 mb 0.00 in0.0 mm 0.00 in0.0 mm 0.13 in3.3 mm
11:35 PM 56.5°F13.6°C 50.4°F10.2°C 80% 1.8 mph NW2.9 kmh NW 5.4 mph8.7 kmh 29.96 in1014.6 mb 0.00 in0.0 mm 0.00 in0.0 mm 0.13 in3.3 mm
11:40 PM 56.5°F13.6°C 50.4°F10.2°C 80% 0.2 mph NW0.3 kmh NW 3.1 mph5.0 kmh 29.96 in1014.6 mb 0.00 in0.0 mm 0.00 in0.0 mm 0.13 in3.3 mm
11:45 PM 56.3°F13.5°C 50.2°F10.1°C 80% Calm Calm 2.0 mph3.2 kmh 29.96 in1014.6 mb 0.00 in0.0 mm 0.00 in0.0 mm 0.13 in3.3 mm
11:50 PM 56.3°F13.5°C 50.2°F10.1°C 80% Calm Calm 2.0 mph3.2 kmh 29.96 in1014.6 mb 0.00 in0.0 mm 0.00 in0.0 mm 0.13 in3.3 mm
11:55 PM 56.3°F13.5°C 50.2°F10.1°C 80% Calm Calm 1.1 mph1.8 kmh 29.96 in1014.6 mb 0.00 in0.0 mm 0.00 in0.0 mm 0.13 in3.3 mm